Time;durP1;ratioP1;P1;durP2;ratioP2;P2;SDS_P1;SDS_P2;PMS_P1;PMS_P2;Temp;Humidity;BMP_temperature;BMP_pressure;BME280_temperature;BME280_humidity;BME280_pressure;Samples;Min_cycle;Max_cycle;Signal;HPM_P1;HPM_P2
2023/08/28 12:37:38;;;;;;;1.83;1.48;;;21.30;95.70;;;;;;6244048;22;1551664;-88
2023/08/28 12:40:10;;;;;;;4.97;1.70;;;20.90;95.70;;;;;;6279967;22;20153;-87
2023/08/28 12:42:38;;;;;;;1.55;1.45;;;20.60;97.00;;;;;;6279498;22;20228;-87
2023/08/28 12:45:04;;;;;;;7.90;1.60;;;20.70;97.70;;;;;;6279168;22;20157;-87
2023/08/28 12:47:30;;;;;;;1.75;1.55;;;20.90;97.50;;;;;;6279017;22;20226;-87
2023/08/28 12:49:56;;;;;;;1.75;1.50;;;20.90;96.60;;;;;;6279666;22;20161;-87
2023/08/28 12:52:21;;;;;;;2.30;1.40;;;20.90;96.70;;;;;;6279665;22;20145;-87
2023/08/28 12:54:47;;;;;;;3.42;1.50;;;20.80;96.80;;;;;;6279258;22;20181;-87
2023/08/28 12:57:12;;;;;;;4.35;1.70;;;20.80;96.90;;;;;;6277256;22;20176;-88
2023/08/28 12:59:38;;;;;;;6.43;1.42;;;20.80;96.80;;;;;;6277866;22;20157;-87
2023/08/28 13:02:04;;;;;;;3.42;1.73;;;20.90;97.00;;;;;;6279077;22;20145;-87
2023/08/28 13:04:30;;;;;;;1.30;1.30;;;21.10;96.50;;;;;;6277632;22;20157;-88
2023/08/28 13:06:56;;;;;;;2.53;1.70;;;21.10;96.00;;;;;;6278374;22;20177;-88
2023/08/28 13:09:23;;;;;;;11.07;1.88;;;21.20;96.00;;;;;;6279442;22;20187;-87
2023/08/28 13:11:52;;;;;;;3.08;1.20;;;21.10;95.60;;;;;;6277873;22;20619;-87
2023/08/28 13:14:18;;;;;;;1.50;1.40;;;21.10;96.10;;;;;;6276718;22;20165;-87
2023/08/28 13:16:44;;;;;;;2.55;1.45;;;21.10;96.20;;;;;;6277875;22;20259;-88
2023/08/28 13:19:13;;;;;;;2.10;1.38;;;21.00;95.40;;;;;;6279376;22;20157;-89
2023/08/28 13:21:39;;;;;;;2.33;1.45;;;20.90;95.70;;;;;;6279270;22;20160;-89
2023/08/28 13:24:05;;;;;;;1.88;1.50;;;20.90;95.20;;;;;;6279034;22;20148;-89
2023/08/28 13:26:31;;;;;;;2.67;1.40;;;20.90;94.80;;;;;;6280117;22;20247;-89
2023/08/28 13:28:58;;;;;;;3.33;1.30;;;21.00;95.80;;;;;;6280378;22;20240;-89
2023/08/28 13:31:41;;;;;;;;;;;;;;;;;;;;;
2023/08/28 13:34:12;;;;;;;3.33;1.30;;;21.20;95.50;;;;;;6280850;22;20224;-89
2023/08/28 13:36:44;;;;;;;2.20;1.52;;;21.10;94.30;;;;;;6278283;22;20196;-89
2023/08/28 13:39:14;;;;;;;1.25;1.15;;;21.10;94.70;;;;;;6281514;22;20153;-86
2023/08/28 13:41:40;;;;;;;1.33;1.10;;;21.10;93.90;;;;;;6279899;22;20503;-87
2023/08/28 13:45:10;;;;;;;6.45;1.60;;;21.20;94.40;;;;;;6278658;22;20513;-88
2023/08/28 14:19:13;;;;;;;1.50;1.40;;;20.50;94.70;;;;;;6206983;22;20209;-77
2023/08/28 14:21:45;;;;;;;4.72;1.63;;;20.40;94.60;;;;;;6246265;22;20161;-77
2023/08/28 14:24:15;;;;;;;2.25;1.30;;;20.20;95.20;;;;;;6246447;23;20153;-77
2023/08/28 14:26:41;;;;;;;4.43;1.33;;;20.00;95.80;;;;;;6229957;23;20197;-77
2023/08/28 14:29:12;;;;;;;2.13;1.65;;;20.10;96.00;;;;;;6192097;23;20596;-77
2023/08/28 14:31:52;;;;;;;1.92;1.30;;;20.10;95.90;;;;;;6192136;23;20170;-77
2023/08/28 14:34:22;;;;;;;3.13;1.17;;;20.10;95.80;;;;;;6218125;23;20217;-77
2023/08/28 14:36:50;;;;;;;8.75;2.08;;;20.10;95.50;;;;;;6191196;23;20178;-77
2023/08/28 14:39:16;;;;;;;8.52;1.70;;;20.00;95.50;;;;;;6191162;23;20149;-77
2023/08/28 14:41:42;;;;;;;8.68;1.70;;;20.00;95.40;;;;;;6192927;23;20158;-77
2023/08/28 14:44:07;;;;;;;4.63;1.30;;;20.00;95.40;;;;;;6191594;23;20241;-77
2023/08/28 14:46:59;;;;;;;1.50;1.40;;;20.10;95.70;;;;;;6192518;23;20182;-77
2023/08/28 14:49:25;;;;;;;3.90;1.40;;;20.20;95.90;;;;;;6191113;23;20146;-78
2023/08/28 14:51:50;;;;;;;4.72;1.65;;;20.20;96.00;;;;;;6191502;23;20168;-77
2023/08/28 14:54:16;;;;;;;5.22;1.63;;;20.20;95.90;;;;;;6192058;23;20599;-77
2023/08/28 14:56:42;;;;;;;1.85;1.35;;;20.10;95.80;;;;;;6218426;23;20166;-78
2023/08/28 14:59:10;;;;;;;1.83;1.60;;;20.00;96.50;;;;;;6193206;23;20196;-78
2023/08/28 15:01:37;;;;;;;2.25;1.50;;;20.10;96.20;;;;;;6193622;23;20138;-78
2023/08/28 15:04:02;;;;;;;3.78;1.67;;;19.90;96.10;;;;;;6193744;23;20482;-78
2023/08/28 15:06:28;;;;;;;2.60;1.60;;;19.90;96.80;;;;;;6194765;23;20178;-78
2023/08/28 15:09:10;;;;;;;1.67;1.50;;;20.00;97.10;;;;;;6194149;23;20185;-78
2023/08/28 15:11:58;;;;;;;5.15;1.73;;;20.10;96.50;;;;;;6193394;23;20146;-78
2023/08/28 15:14:28;;;;;;;4.95;2.00;;;20.20;96.60;;;;;;6193207;23;20143;-78
2023/08/28 15:16:54;;;;;;;2.35;1.50;;;20.10;96.50;;;;;;6191837;23;20697;-78
2023/08/28 15:19:19;;;;;;;5.93;1.60;;;20.10;96.70;;;;;;6194566;23;20174;-78
2023/08/28 15:21:46;;;;;;;4.40;1.60;;;20.20;96.50;;;;;;6194290;23;20159;-78
2023/08/28 15:24:20;;;;;;;1.95;1.70;;;20.00;97.10;;;;;;6194701;23;20200;-78
2023/08/28 15:26:45;;;;;;;3.55;1.50;;;20.00;96.60;;;;;;6195117;23;20170;-78
2023/08/28 15:29:16;;;;;;;1.85;1.70;;;19.90;96.30;;;;;;6194814;23;20156;-78
2023/08/28 15:31:43;;;;;;;2.35;1.50;;;19.80;97.00;;;;;;6195467;23;20234;-78
2023/08/28 15:34:09;;;;;;;1.92;1.73;;;19.70;96.90;;;;;;6194543;23;20134;-78
2023/08/28 15:36:47;;;;;;;1.65;1.40;;;19.60;97.10;;;;;;6193415;23;20239;-78
2023/08/28 15:39:42;;;;;;;7.45;1.90;;;19.50;97.20;;;;;;6191096;23;20172;-78
2023/08/28 15:42:08;;;;;;;2.40;1.70;;;19.30;97.50;;;;;;6192127;23;20150;-78
2023/08/28 15:44:34;;;;;;;3.55;1.50;;;19.40;97.40;;;;;;6217962;23;20173;-78
2023/08/28 15:47:01;;;;;;;4.45;1.65;;;19.40;97.50;;;;;;6190814;23;20186;-78
2023/08/28 15:49:39;;;;;;;4.82;1.80;;;19.50;97.10;;;;;;6192574;23;20147;-78
2023/08/28 15:52:05;;;;;;;1.40;1.30;;;19.50;97.20;;;;;;6194552;23;20146;-78
2023/08/28 15:54:30;;;;;;;2.88;1.40;;;19.50;97.00;;;;;;6192828;23;20514;-78
2023/08/28 15:56:56;;;;;;;2.92;1.48;;;19.40;97.00;;;;;;6191842;23;20166;-78
2023/08/28 15:59:21;;;;;;;1.45;1.35;;;19.30;96.60;;;;;;6190847;23;20236;-78
2023/08/28 16:01:48;;;;;;;2.35;1.50;;;19.30;96.90;;;;;;6191652;23;20197;-78
2023/08/28 16:04:15;;;;;;;7.22;1.70;;;19.20;97.20;;;;;;6218645;23;20139;-78
2023/08/28 16:06:41;;;;;;;5.30;1.67;;;19.10;97.60;;;;;;6191167;23;20225;-77
2023/08/28 16:09:06;;;;;;;2.03;1.52;;;19.00;97.90;;;;;;6191264;23;20158;-78
2023/08/28 16:11:50;;;;;;;2.58;1.50;;;19.10;97.60;;;;;;6190958;23;20237;-77
2023/08/28 16:14:16;;;;;;;1.40;1.40;;;19.00;97.60;;;;;;6192184;23;20146;-77
2023/08/28 16:16:42;;;;;;;2.13;1.42;;;19.00;97.80;;;;;;6191373;23;20178;-77
2023/08/28 16:19:09;;;;;;;2.22;1.48;;;19.00;97.70;;;;;;6191865;23;20170;-83
2023/08/28 16:21:36;;;;;;;8.88;1.73;;;19.00;97.90;;;;;;6191358;23;20158;-77
2023/08/28 16:24:02;;;;;;;3.80;1.70;;;19.10;98.30;;;;;;6190622;23;20154;-77
2023/08/28 16:26:28;;;;;;;2.05;1.60;;;19.00;98.00;;;;;;6217165;23;20181;-77
2023/08/28 16:28:54;;;;;;;1.70;1.60;;;19.00;97.80;;;;;;6217046;23;20546;-77
2023/08/28 16:31:20;;;;;;;1.73;1.63;;;18.90;98.00;;;;;;6190081;23;20602;-77
2023/08/28 16:33:47;;;;;;;2.45;1.40;;;19.00;98.60;;;;;;6190121;23;20165;-77
2023/08/28 16:36:12;;;;;;;1.45;1.45;;;19.00;98.70;;;;;;6216794;23;20186;-77
2023/08/28 16:38:38;;;;;;;1.73;1.63;;;18.80;98.10;;;;;;6191076;23;20245;-77
2023/08/28 16:41:04;;;;;;;2.17;1.80;;;18.70;98.40;;;;;;6190357;23;20204;-82
2023/08/28 16:43:43;;;;;;;1.98;1.75;;;18.50;98.30;;;;;;6190496;23;20210;-77
2023/08/28 16:46:12;;;;;;;1.88;1.77;;;18.40;98.90;;;;;;6190403;23;20177;-77
2023/08/28 16:48:37;;;;;;;2.70;1.75;;;18.30;99.10;;;;;;6189631;23;20161;-77
2023/08/28 16:51:07;;;;;;;3.10;1.70;;;18.30;99.50;;;;;;6191228;23;20154;-77
2023/08/28 16:53:37;;;;;;;4.38;1.80;;;18.20;99.80;;;;;;6190434;23;20162;-78
2023/08/28 16:56:02;;;;;;;5.22;1.95;;;18.20;99.40;;;;;;6190119;23;20186;-77
2023/08/28 17:02:00;;;;;;;1.50;1.40;;;18.10;99.90;;;;;;6095644;23;20235;-77
2023/08/28 17:18:47;;;;;;;1.90;1.73;;;17.60;99.90;;;;;;6153987;23;20227;-77
2023/08/28 17:21:48;;;;;;;2.88;1.80;;;17.50;99.90;;;;;;6177807;23;20546;-78
2023/08/28 17:24:55;;;;;;;4.63;1.95;;;17.50;99.90;;;;;;6073145;23;20165;-78
2023/08/28 17:27:54;;;;;;;3.13;1.70;;;17.50;99.90;;;;;;6071700;23;20207;-78
2023/08/28 17:30:29;;;;;;;3.50;1.80;;;17.40;99.90;;;;;;6216998;23;20158;-78
2023/08/28 17:33:29;;;;;;;;;;;;;;;;;;;;;
2023/08/28 17:36:54;;;;;;;1.88;1.65;;;17.40;99.90;;;;;;6215946;23;20261;-77
2023/08/28 17:39:33;;;;;;;3.20;1.83;;;17.30;99.90;;;;;;6187568;23;20181;-77
2023/08/28 17:42:43;;;;;;;1.92;1.73;;;17.20;99.90;;;;;;6187748;23;20205;-77
2023/08/28 17:45:20;;;;;;;3.47;2.38;;;17.10;99.90;;;;;;6214459;23;20172;-77
2023/08/28 17:48:02;;;;;;;2.33;2.10;;;17.10;99.90;;;;;;6189281;23;20263;-77
2023/08/28 17:50:43;;;;;;;4.43;2.40;;;17.10;99.90;;;;;;6189647;23;20292;-77
2023/08/28 17:53:12;;;;;;;2.70;2.33;;;17.00;99.90;;;;;;6189507;23;20633;-77
2023/08/28 17:55:38;;;;;;;3.92;2.30;;;16.90;99.90;;;;;;6189258;23;20270;-77
2023/08/28 17:58:05;;;;;;;2.45;2.10;;;16.90;99.90;;;;;;6190231;23;20170;-77
2023/08/28 18:00:34;;;;;;;2.45;2.30;;;16.90;99.90;;;;;;6189946;23;20238;-77
2023/08/28 18:03:03;;;;;;;2.45;1.90;;;16.80;99.90;;;;;;6189545;23;20143;-77
2023/08/28 18:05:41;;;;;;;4.30;1.70;;;16.80;99.90;;;;;;6189586;23;20214;-77
2023/08/28 18:08:13;;;;;;;4.70;1.90;;;16.80;99.90;;;;;;6190299;23;20154;-78
2023/08/28 18:10:41;;;;;;;2.10;1.63;;;16.60;99.90;;;;;;6189473;23;20143;-82
2023/08/28 18:13:10;;;;;;;4.63;1.77;;;16.60;99.90;;;;;;6189839;23;20498;-81
2023/08/28 18:15:39;;;;;;;3.40;2.15;;;16.50;99.90;;;;;;6190135;23;20251;-77
2023/08/28 18:18:05;;;;;;;1.65;1.55;;;16.50;99.90;;;;;;6189307;23;20225;-77
2023/08/28 18:20:31;;;;;;;2.65;1.80;;;16.50;99.90;;;;;;6189086;23;20553;-76
2023/08/28 18:22:57;;;;;;;2.78;1.60;;;16.40;99.90;;;;;;6215929;23;20162;-75
2023/08/28 18:25:24;;;;;;;1.75;1.50;;;16.40;99.90;;;;;;6189038;23;20167;-76
2023/08/28 18:27:51;;;;;;;2.95;1.75;;;16.30;99.90;;;;;;6189179;23;20189;-76
2023/08/28 18:30:16;;;;;;;2.45;1.50;;;16.30;99.90;;;;;;6189029;23;20158;-77
2023/08/28 18:32:43;;;;;;;2.47;1.70;;;16.30;99.90;;;;;;6189240;23;20158;-75
2023/08/28 18:35:42;;;;;;;2.10;1.70;;;16.30;99.90;;;;;;6188779;23;20224;-76
2023/08/28 18:38:08;;;;;;;1.80;1.70;;;16.20;99.90;;;;;;6189700;23;20161;-76
2023/08/28 18:40:48;;;;;;;1.92;1.75;;;16.20;99.90;;;;;;6189218;23;20150;-76
2023/08/28 18:43:26;;;;;;;2.20;1.70;;;16.20;99.90;;;;;;6215692;23;20135;-76
2023/08/28 18:46:05;;;;;;;1.80;1.70;;;16.20;99.90;;;;;;6189047;23;20178;-76
2023/08/28 18:48:32;;;;;;;2.80;1.85;;;16.10;99.90;;;;;;6190173;23;20168;-75
2023/08/28 18:51:03;;;;;;;2.35;1.63;;;16.10;99.90;;;;;;6190081;23;20159;-76
2023/08/28 18:53:39;;;;;;;2.95;2.00;;;16.00;99.90;;;;;;6215662;23;20134;-75
2023/08/28 18:56:08;;;;;;;2.63;1.98;;;16.10;99.90;;;;;;6215296;23;20185;-75
2023/08/28 18:58:34;;;;;;;5.13;1.90;;;16.10;99.90;;;;;;6215624;23;20482;-76
2023/08/28 19:01:15;;;;;;;1.90;1.80;;;16.10;99.90;;;;;;6189172;23;20177;-76
2023/08/28 19:04:21;;;;;;;2.08;1.98;;;16.10;99.90;;;;;;6189346;23;20146;-75
2023/08/28 19:06:47;;;;;;;2.80;2.08;;;16.00;99.90;;;;;;6214839;23;20499;-75
2023/08/28 19:09:13;;;;;;;2.15;2.05;;;16.00;99.90;;;;;;6189019;23;20161;-75
2023/08/28 19:12:06;;;;;;;2.22;2.03;;;16.00;99.90;;;;;;6190100;23;20236;-76
2023/08/28 19:14:33;;;;;;;1.83;1.70;;;16.00;99.90;;;;;;6194111;23;20146;-79
2023/08/28 19:16:59;;;;;;;2.75;1.80;;;16.00;99.90;;;;;;6195230;23;20635;-78
2023/08/28 19:19:25;;;;;;;2.10;2.00;;;16.00;99.90;;;;;;6196051;23;20542;-78
2023/08/28 19:21:52;;;;;;;2.72;2.00;;;16.00;99.90;;;;;;6195682;23;20210;-78
2023/08/28 19:24:18;;;;;;;3.55;1.83;;;16.00;99.90;;;;;;6195421;23;20161;-78
2023/08/28 19:26:44;;;;;;;2.00;1.90;;;16.00;99.90;;;;;;6195154;23;20178;-78
2023/08/28 19:29:10;;;;;;;3.00;1.73;;;15.90;99.90;;;;;;6195053;23;20403;-78
2023/08/28 19:31:36;;;;;;;1.98;1.80;;;15.90;99.90;;;;;;6195053;23;20197;-78
2023/08/28 19:34:03;;;;;;;2.58;1.88;;;15.80;99.90;;;;;;6193919;23;20146;-78
2023/08/28 19:36:29;;;;;;;3.30;1.90;;;15.70;99.90;;;;;;6194823;23;20190;-78
2023/08/28 19:38:56;;;;;;;2.45;2.00;;;15.70;99.90;;;;;;6195903;23;20161;-79
2023/08/28 19:41:22;;;;;;;2.15;2.00;;;15.60;99.90;;;;;;6194168;23;20157;-78
2023/08/28 19:43:49;;;;;;;1.67;1.58;;;15.60;99.90;;;;;;6192360;23;20154;-78
2023/08/28 19:46:15;;;;;;;2.15;1.95;;;15.60;99.90;;;;;;6190634;23;20185;-78
2023/08/28 19:49:20;;;;;;;2.13;1.80;;;15.60;99.90;;;;;;6190636;23;20154;-78
2023/08/28 19:52:38;;;;;;;2.15;1.98;;;15.60;99.90;;;;;;6217677;23;20142;-78
2023/08/28 19:55:04;;;;;;;1.90;1.80;;;15.30;99.90;;;;;;6216052;23;20178;-77
2023/08/28 19:57:30;;;;;;;2.28;1.77;;;15.30;99.90;;;;;;6190757;23;20205;-78
2023/08/28 19:59:56;;;;;;;2.63;1.90;;;15.30;99.90;;;;;;6190452;23;20155;-78
2023/08/28 20:02:22;;;;;;;2.17;1.98;;;15.30;99.90;;;;;;6217388;23;20169;-78
2023/08/28 20:04:48;;;;;;;4.20;2.40;;;15.30;99.90;;;;;;6191482;23;20155;-78
2023/08/28 20:07:16;;;;;;;2.40;2.20;;;15.30;99.90;;;;;;6190285;23;20182;-77
2023/08/28 20:09:45;;;;;;;4.22;2.13;;;15.20;99.90;;;;;;6190340;23;20285;-77
2023/08/28 20:12:14;;;;;;;3.30;2.38;;;15.20;99.90;;;;;;6191403;23;20158;-77
2023/08/28 20:14:41;;;;;;;2.38;2.10;;;15.20;99.90;;;;;;6190537;23;20534;-78
2023/08/28 20:17:08;;;;;;;4.90;2.03;;;15.20;99.90;;;;;;6189769;23;20174;-78
2023/08/28 20:19:34;;;;;;;4.60;2.00;;;15.20;99.90;;;;;;6190404;23;20181;-78
2023/08/28 20:22:09;;;;;;;1.83;1.67;;;15.30;99.90;;;;;;6190198;23;20539;-78
2023/08/28 20:24:37;;;;;;;2.25;1.92;;;15.30;99.90;;;;;;6217080;23;20130;-78
2023/08/28 20:27:05;;;;;;;3.97;1.80;;;15.30;99.90;;;;;;6189943;23;20174;-77
2023/08/28 20:29:31;;;;;;;2.42;1.80;;;15.30;99.90;;;;;;6190513;23;20173;-78
2023/08/28 20:31:58;;;;;;;4.93;2.00;;;15.30;99.90;;;;;;6217602;23;20159;-78
2023/08/28 20:34:24;;;;;;;2.03;1.92;;;15.30;99.90;;;;;;6191008;23;20155;-78
2023/08/28 20:36:50;;;;;;;2.00;1.90;;;15.30;99.90;;;;;;6217017;23;20206;-78
2023/08/28 20:39:16;;;;;;;4.00;1.90;;;15.10;99.90;;;;;;6218150;23;20476;-78
2023/08/28 20:41:41;;;;;;;2.63;2.00;;;15.10;99.90;;;;;;6218781;23;20154;-78
2023/08/28 20:44:09;;;;;;;2.33;1.80;;;15.10;99.90;;;;;;6190167;23;20164;-78
2023/08/28 20:46:38;;;;;;;2.38;2.17;;;15.10;99.90;;;;;;6191057;23;20184;-78
2023/08/28 20:49:04;;;;;;;1.98;1.80;;;15.10;99.90;;;;;;6190941;23;20185;-78
2023/08/28 20:51:32;;;;;;;2.35;2.08;;;15.00;99.90;;;;;;6190396;23;20170;-77
2023/08/28 20:53:58;;;;;;;2.67;1.80;;;14.90;99.90;;;;;;6190585;23;20154;-77
2023/08/28 20:56:25;;;;;;;3.55;2.10;;;14.90;99.90;;;;;;6190330;23;20197;-77
2023/08/28 20:58:50;;;;;;;2.33;2.10;;;14.90;99.90;;;;;;6189965;23;20151;-78
2023/08/28 21:01:16;;;;;;;2.67;2.10;;;14.90;99.90;;;;;;6191815;23;20154;-78
2023/08/28 21:03:43;;;;;;;2.17;2.08;;;15.00;99.90;;;;;;6190400;23;20177;-78
2023/08/28 21:06:09;;;;;;;2.30;2.10;;;15.00;99.90;;;;;;6191409;23;20181;-78
2023/08/28 21:08:34;;;;;;;2.20;2.00;;;14.90;99.90;;;;;;6217082;23;20196;-78
2023/08/28 21:11:00;;;;;;;2.05;1.90;;;14.90;99.90;;;;;;6216548;23;20208;-78
2023/08/28 21:13:26;;;;;;;2.13;1.92;;;14.80;99.90;;;;;;6190321;23;20211;-78
2023/08/28 21:15:56;;;;;;;2.30;2.00;;;14.80;99.90;;;;;;6190493;23;20194;-78
2023/08/28 21:18:22;;;;;;;2.35;2.15;;;14.90;99.90;;;;;;6190209;23;20150;-78
2023/08/28 21:20:50;;;;;;;3.55;2.22;;;14.90;99.90;;;;;;6190953;23;20166;-78
2023/08/28 21:23:15;;;;;;;2.50;2.33;;;14.90;99.90;;;;;;6191108;23;20150;-78
2023/08/28 21:25:41;;;;;;;2.53;2.10;;;14.90;99.90;;;;;;6190576;23;20209;-78
2023/08/28 21:28:07;;;;;;;3.67;2.45;;;14.90;99.90;;;;;;6189963;23;20654;-78
2023/08/28 21:30:33;;;;;;;4.57;1.98;;;14.80;99.90;;;;;;6190157;23;20150;-78
2023/08/28 21:32:58;;;;;;;3.03;2.20;;;14.80;99.90;;;;;;6190162;23;20166;-78
2023/08/28 21:35:24;;;;;;;3.42;2.50;;;14.80;99.90;;;;;;6190982;23;20181;-78
2023/08/28 21:37:50;;;;;;;3.95;2.55;;;14.70;99.90;;;;;;6189651;23;20182;-78
2023/08/28 21:40:15;;;;;;;2.90;2.25;;;14.60;99.90;;;;;;6216065;23;20142;-77
2023/08/28 21:42:41;;;;;;;8.85;2.75;;;14.60;99.90;;;;;;6189433;23;20158;-77
2023/08/28 21:45:08;;;;;;;3.63;2.33;;;14.50;99.90;;;;;;6191368;23;20166;-79
2023/08/28 21:47:34;;;;;;;3.03;2.33;;;14.50;99.90;;;;;;6191946;23;20661;-80
2023/08/28 21:50:00;;;;;;;5.65;2.67;;;14.50;99.90;;;;;;6192342;23;20241;-79
2023/08/28 21:52:25;;;;;;;3.47;2.50;;;14.40;99.90;;;;;;6218430;23;20166;-79
2023/08/28 21:54:51;;;;;;;4.53;2.70;;;14.40;99.90;;;;;;6192448;23;20271;-79
2023/08/28 21:57:16;;;;;;;2.60;2.40;;;14.20;99.90;;;;;;6191394;23;20177;-76
2023/08/28 21:59:42;;;;;;;3.90;2.75;;;14.20;99.90;;;;;;6189873;23;20225;-76
2023/08/28 22:02:47;;;;;;;4.35;3.00;;;14.10;99.90;;;;;;6189758;23;20237;-76
2023/08/28 22:05:13;;;;;;;5.18;2.40;;;14.00;99.90;;;;;;6216784;23;20508;-76
2023/08/28 22:07:39;;;;;;;3.33;2.47;;;14.00;99.90;;;;;;6189218;23;20178;-75
2023/08/28 22:10:05;;;;;;;6.05;3.20;;;13.90;99.90;;;;;;6189362;23;20158;-75
2023/08/28 22:12:30;;;;;;;4.97;2.85;;;13.80;99.90;;;;;;6189458;23;20162;-75
2023/08/28 22:14:56;;;;;;;4.28;2.67;;;13.80;99.90;;;;;;6189530;23;20174;-75
2023/08/28 22:17:22;;;;;;;2.80;2.70;;;13.70;99.90;;;;;;6190260;23;20252;-75
2023/08/28 22:19:48;;;;;;;4.78;2.83;;;13.70;99.90;;;;;;6189489;23;20181;-76
2023/08/28 22:22:15;;;;;;;3.42;2.60;;;13.60;99.90;;;;;;6189348;23;20186;-75
2023/08/28 22:24:40;;;;;;;2.83;2.63;;;13.60;99.90;;;;;;6189632;23;20600;-76
2023/08/28 22:27:06;;;;;;;3.15;2.85;;;13.60;99.90;;;;;;6189535;23;20192;-75
2023/08/28 22:29:32;;;;;;;2.92;2.60;;;13.50;99.90;;;;;;6189657;23;20185;-75
2023/08/28 22:31:57;;;;;;;3.03;2.78;;;13.50;99.90;;;;;;6190598;23;20451;-75
2023/08/28 22:34:23;;;;;;;3.28;2.97;;;13.50;99.90;;;;;;6189611;23;20155;-75
2023/08/28 22:36:48;;;;;;;3.40;3.10;;;13.50;99.90;;;;;;6188999;23;20190;-76
2023/08/28 22:39:14;;;;;;;5.78;3.10;;;13.50;99.90;;;;;;6216002;23;20233;-76
2023/08/28 22:41:39;;;;;;;3.15;2.95;;;13.50;99.90;;;;;;6190634;23;20139;-76
2023/08/28 22:44:05;;;;;;;3.22;2.92;;;13.50;99.90;;;;;;6189134;23;20193;-76
2023/08/28 22:46:31;;;;;;;3.47;3.20;;;13.40;99.90;;;;;;6189346;23;20583;-76
2023/08/28 22:48:56;;;;;;;3.20;2.78;;;13.40;99.90;;;;;;6191201;23;20165;-76
2023/08/28 22:51:23;;;;;;;3.42;3.15;;;13.40;99.90;;;;;;6191069;23;20173;-75
2023/08/28 22:53:49;;;;;;;3.00;2.80;;;13.30;99.90;;;;;;6190986;23;20169;-75
2023/08/28 22:56:14;;;;;;;3.33;2.80;;;13.30;99.90;;;;;;6190883;23;20189;-76
2023/08/28 22:58:40;;;;;;;3.47;3.03;;;13.30;99.90;;;;;;6191486;23;20173;-75
2023/08/28 23:01:06;;;;;;;2.80;2.60;;;13.30;99.90;;;;;;6191009;23;20154;-75
2023/08/28 23:03:33;;;;;;;2.97;2.72;;;13.30;99.90;;;;;;6191285;23;20208;-75
2023/08/28 23:05:58;;;;;;;3.45;3.20;;;13.30;99.90;;;;;;6190980;23;20178;-75
2023/08/28 23:08:24;;;;;;;4.55;3.30;;;13.30;99.90;;;;;;6191364;23;20166;-75
2023/08/28 23:10:49;;;;;;;3.63;3.25;;;13.30;99.90;;;;;;6190958;23;20221;-75
2023/08/28 23:13:15;;;;;;;3.25;2.90;;;13.40;99.90;;;;;;6190810;23;20237;-75
2023/08/28 23:15:45;;;;;;;4.03;3.05;;;13.50;99.90;;;;;;6190848;23;20205;-76
2023/08/28 23:18:10;;;;;;;3.33;3.03;;;13.40;99.90;;;;;;6217264;23;20158;-75
2023/08/28 23:20:36;;;;;;;3.72;2.95;;;13.40;99.90;;;;;;6190855;23;20492;-75
2023/08/28 23:23:01;;;;;;;3.40;2.95;;;13.50;99.90;;;;;;6190896;23;20158;-75
2023/08/28 23:25:27;;;;;;;3.83;3.03;;;13.50;99.90;;;;;;6190858;23;20240;-75
2023/08/28 23:27:54;;;;;;;3.35;3.05;;;13.50;99.90;;;;;;6190568;23;20257;-75
2023/08/28 23:30:21;;;;;;;3.47;3.17;;;13.50;99.90;;;;;;6191242;23;20162;-75
2023/08/28 23:32:46;;;;;;;5.47;2.92;;;13.50;99.90;;;;;;6190663;23;20241;-75
2023/08/28 23:35:12;;;;;;;3.40;2.85;;;13.60;99.90;;;;;;6190502;23;20218;-75
2023/08/28 23:37:38;;;;;;;3.33;3.03;;;13.60;99.90;;;;;;6217174;23;20162;-75
2023/08/28 23:40:05;;;;;;;3.28;2.97;;;13.60;99.90;;;;;;6191002;23;20150;-75
2023/08/28 23:42:31;;;;;;;4.82;3.30;;;13.70;99.90;;;;;;6190549;23;20186;-75
2023/08/28 23:44:56;;;;;;;3.97;3.10;;;13.70;99.90;;;;;;6191042;23;20151;-75
2023/08/28 23:47:22;;;;;;;3.63;2.90;;;13.70;99.90;;;;;;6190930;23;20245;-75
2023/08/28 23:49:47;;;;;;;8.55;3.15;;;13.70;99.90;;;;;;6190853;23;20236;-75
2023/08/28 23:52:13;;;;;;;3.03;2.78;;;13.70;99.90;;;;;;6191613;23;20197;-75
2023/08/28 23:54:39;;;;;;;3.92;2.72;;;13.70;99.90;;;;;;6191437;23;20531;-75
2023/08/28 23:57:04;;;;;;;5.25;2.90;;;13.80;99.90;;;;;;6190356;23;20627;-75
2023/08/28 23:59:30;;;;;;;2.90;2.70;;;13.80;99.90;;;;;;6190315;23;20150;-75
